This is the latest recevied weather packets stored in our database for station/object N3WMC. If no packets are shown the sender has not sent any weather packets the latest 10 day(s).
| Time | Temp. | Humidity | Pressure | Rain* | Wind** | Luminosity | Snow |
|---|---|---|---|---|---|---|---|
| 1787428078 | 28.33° C | 58% | 1012.1 hPa | 0 mm | - | 226 W/m² | - |
| 1787427773 | 27.78° C | 60% | 1012.2 hPa | 0 mm | - | 259 W/m² | - |
| 1787427469 | 28.33° C | 60% | 1012.2 hPa | 0 mm | - | 285 W/m² | - |
| 1787427165 | 27.78° C | 61% | 1012.3 hPa | 0 mm | - | 233 W/m² | - |
| 1787426860 | 27.78° C | 62% | 1012.5 hPa | 0 mm | - | 182 W/m² | - |
| 1787426555 | 27.78° C | 62% | 1012.3 hPa | 0 mm | - | 149 W/m² | - |
| 1787426252 | 28.33° C | 60% | 1012.3 hPa | 0 mm | - | 193 W/m² | - |
| 1787425948 | 28.33° C | 58% | 1012.2 hPa | 0 mm | - | 228 W/m² | - |
| 1787425644 | 28.33° C | 60% | 1012.6 hPa | 0 mm | - | 498 W/m² | - |
| 1787425340 | 27.78° C | 60% | 1012.8 hPa | 0 mm | - | 188 W/m² | - |
| 1787425039 | 27.78° C | 61% | 1012.8 hPa | 0 mm | - | 400 W/m² | - |
| 1787424739 | 28.33° C | 60% | 1012.8 hPa | 0 mm | - | 240 W/m² | - |
| 1787424434 | 28.33° C | 60% | 1013 hPa | 0 mm | - | 575 W/m² | - |
| 1787424129 | 27.78° C | 59% | 1012.9 hPa | 0 mm | - | 196 W/m² | - |
| 1787423825 | 27.78° C | 59% | 1012.8 hPa | 0 mm | - | 244 W/m² | - |
| 1787423522 | 27.78° C | 62% | 1013 hPa | 0 mm | - | 602 W/m² | - |
| 1787423217 | 28.33° C | 58% | 1013.1 hPa | 0 mm | - | 168 W/m² | - |
| 1787422913 | 28.89° C | 59% | 1013.3 hPa | 0 mm | - | 599 W/m² | - |
| 1787422609 | 28.89° C | 58% | 1013.3 hPa | 0 mm | - | 590 W/m² | - |
| 1787422304 | 27.78° C | 60% | 1013.6 hPa | 0 mm | - | 540 W/m² | - |
| 1787422000 | 27.78° C | 60% | 1013.4 hPa | 0 mm | - | 243 W/m² | - |
| 1787421697 | 28.33° C | 59% | 1013.5 hPa | 0 mm | - | 629 W/m² | - |
| 1787421392 | 27.78° C | 61% | 1013.6 hPa | 0 mm | - | 620 W/m² | - |
| 1787421087 | 27.78° C | 60% | 1013.9 hPa | 0 mm | - | 212 W/m² | - |
| 1787420782 | 28.89° C | 59% | 1013.9 hPa | 0 mm | - | 662 W/m² | - |
* Rain latest hour (hover to see other rain measurements)
** Current wind speed in m/s (hover to see current wind gust speed)